sensor_id;sensor_type;location;lat;lon;timestamp;P1;durP1;ratioP1;P2;durP2;ratioP2
81382;SDS011;70834;37.534;-122.308;2024-03-08T00:01:49;8.35;;;1.50;;
81382;SDS011;70834;37.534;-122.308;2024-03-08T00:04:10;5.55;;;1.27;;
81382;SDS011;70834;37.534;-122.308;2024-03-08T00:06:32;5.78;;;1.30;;
81382;SDS011;70834;37.534;-122.308;2024-03-08T00:08:53;7.57;;;1.35;;
81382;SDS011;70834;37.534;-122.308;2024-03-08T00:11:16;7.85;;;1.70;;
81382;SDS011;70834;37.534;-122.308;2024-03-08T00:13:37;5.68;;;1.45;;
81382;SDS011;70834;37.534;-122.308;2024-03-08T00:15:59;9.98;;;1.98;;
81382;SDS011;70834;37.534;-122.308;2024-03-08T00:18:20;7.10;;;1.67;;
81382;SDS011;70834;37.534;-122.308;2024-03-08T00:20:42;8.88;;;2.55;;
81382;SDS011;70834;37.534;-122.308;2024-03-08T00:23:05;7.95;;;2.45;;
81382;SDS011;70834;37.534;-122.308;2024-03-08T00:25:26;7.80;;;1.67;;
81382;SDS011;70834;37.534;-122.308;2024-03-08T00:27:48;9.05;;;2.15;;
81382;SDS011;70834;37.534;-122.308;2024-03-08T00:30:16;7.53;;;2.20;;
81382;SDS011;70834;37.534;-122.308;2024-03-08T00:32:37;6.93;;;2.10;;
81382;SDS011;70834;37.534;-122.308;2024-03-08T00:34:59;8.85;;;1.88;;
81382;SDS011;70834;37.534;-122.308;2024-03-08T00:37:20;7.72;;;1.63;;
81382;SDS011;70834;37.534;-122.308;2024-03-08T00:39:42;10.80;;;3.08;;
81382;SDS011;70834;37.534;-122.308;2024-03-08T00:42:04;11.48;;;2.80;;
81382;SDS011;70834;37.534;-122.308;2024-03-08T00:44:25;10.20;;;2.17;;
81382;SDS011;70834;37.534;-122.308;2024-03-08T00:46:47;11.15;;;2.63;;
81382;SDS011;70834;37.534;-122.308;2024-03-08T00:49:08;11.80;;;2.60;;
81382;SDS011;70834;37.534;-122.308;2024-03-08T00:51:29;8.80;;;1.80;;
81382;SDS011;70834;37.534;-122.308;2024-03-08T00:53:51;11.77;;;2.90;;
81382;SDS011;70834;37.534;-122.308;2024-03-08T00:56:12;7.32;;;1.80;;
81382;SDS011;70834;37.534;-122.308;2024-03-08T00:58:34;16.92;;;3.42;;
81382;SDS011;70834;37.534;-122.308;2024-03-08T01:00:56;13.50;;;2.78;;
81382;SDS011;70834;37.534;-122.308;2024-03-08T01:03:18;6.60;;;1.75;;
81382;SDS011;70834;37.534;-122.308;2024-03-08T01:05:39;9.63;;;2.17;;
81382;SDS011;70834;37.534;-122.308;2024-03-08T01:08:01;11.35;;;2.83;;
81382;SDS011;70834;37.534;-122.308;2024-03-08T01:10:23;9.63;;;2.50;;
81382;SDS011;70834;37.534;-122.308;2024-03-08T01:12:45;11.73;;;2.33;;
81382;SDS011;70834;37.534;-122.308;2024-03-08T01:15:07;16.67;;;2.90;;
81382;SDS011;70834;37.534;-122.308;2024-03-08T01:17:32;10.43;;;2.50;;
81382;SDS011;70834;37.534;-122.308;2024-03-08T01:19:54;11.50;;;2.00;;
81382;SDS011;70834;37.534;-122.308;2024-03-08T01:22:16;7.32;;;1.70;;
81382;SDS011;70834;37.534;-122.308;2024-03-08T01:24:38;12.32;;;2.63;;
81382;SDS011;70834;37.534;-122.308;2024-03-08T01:27:00;13.88;;;2.33;;
81382;SDS011;70834;37.534;-122.308;2024-03-08T01:29:24;11.38;;;2.22;;
81382;SDS011;70834;37.534;-122.308;2024-03-08T01:31:51;12.00;;;2.88;;
81382;SDS011;70834;37.534;-122.308;2024-03-08T01:34:17;14.50;;;2.42;;
81382;SDS011;70834;37.534;-122.308;2024-03-08T01:36:40;16.52;;;3.10;;
81382;SDS011;70834;37.534;-122.308;2024-03-08T01:39:02;15.63;;;2.30;;
81382;SDS011;70834;37.534;-122.308;2024-03-08T01:41:28;12.13;;;2.80;;
81382;SDS011;70834;37.534;-122.308;2024-03-08T01:43:50;16.88;;;3.88;;
81382;SDS011;70834;37.534;-122.308;2024-03-08T01:46:14;13.57;;;2.95;;
81382;SDS011;70834;37.534;-122.308;2024-03-08T01:48:39;15.90;;;3.03;;
81382;SDS011;70834;37.534;-122.308;2024-03-08T01:51:02;15.95;;;3.60;;
81382;SDS011;70834;37.534;-122.308;2024-03-08T01:53:26;16.08;;;3.65;;
81382;SDS011;70834;37.534;-122.308;2024-03-08T01:55:49;14.55;;;2.97;;
81382;SDS011;70834;37.534;-122.308;2024-03-08T01:58:16;15.05;;;2.63;;
81382;SDS011;70834;37.534;-122.308;2024-03-08T02:00:45;16.53;;;2.60;;
81382;SDS011;70834;37.534;-122.308;2024-03-08T02:03:12;13.52;;;3.05;;
81382;SDS011;70834;37.534;-122.308;2024-03-08T02:05:34;12.75;;;2.42;;
81382;SDS011;70834;37.534;-122.308;2024-03-08T02:07:58;18.67;;;2.67;;
81382;SDS011;70834;37.534;-122.308;2024-03-08T02:10:22;15.70;;;2.88;;
81382;SDS011;70834;37.534;-122.308;2024-03-08T02:12:46;17.25;;;3.17;;
81382;SDS011;70834;37.534;-122.308;2024-03-08T02:15:09;15.00;;;3.47;;
81382;SDS011;70834;37.534;-122.308;2024-03-08T02:17:31;13.60;;;2.30;;
81382;SDS011;70834;37.534;-122.308;2024-03-08T02:20:14;17.58;;;3.10;;
81382;SDS011;70834;37.534;-122.308;2024-03-08T02:22:36;12.82;;;2.72;;
81382;SDS011;70834;37.534;-122.308;2024-03-08T02:25:03;15.00;;;2.60;;
81382;SDS011;70834;37.534;-122.308;2024-03-08T02:27:26;11.95;;;2.70;;
81382;SDS011;70834;37.534;-122.308;2024-03-08T02:29:50;11.90;;;3.00;;
81382;SDS011;70834;37.534;-122.308;2024-03-08T02:32:18;16.40;;;2.83;;
81382;SDS011;70834;37.534;-122.308;2024-03-08T02:34:41;17.42;;;3.17;;
81382;SDS011;70834;37.534;-122.308;2024-03-08T02:37:04;17.95;;;2.97;;
81382;SDS011;70834;37.534;-122.308;2024-03-08T02:39:26;13.10;;;2.47;;
81382;SDS011;70834;37.534;-122.308;2024-03-08T02:41:48;12.82;;;3.22;;
81382;SDS011;70834;37.534;-122.308;2024-03-08T02:44:10;13.15;;;3.03;;
81382;SDS011;70834;37.534;-122.308;2024-03-08T02:46:33;12.50;;;2.45;;
81382;SDS011;70834;37.534;-122.308;2024-03-08T02:48:56;16.00;;;2.97;;
81382;SDS011;70834;37.534;-122.308;2024-03-08T02:51:18;13.32;;;2.50;;
81382;SDS011;70834;37.534;-122.308;2024-03-08T02:53:43;18.90;;;2.70;;
81382;SDS011;70834;37.534;-122.308;2024-03-08T02:56:05;13.40;;;3.53;;
81382;SDS011;70834;37.534;-122.308;2024-03-08T02:58:31;12.38;;;2.78;;
81382;SDS011;70834;37.534;-122.308;2024-03-08T03:00:53;12.90;;;2.83;;
81382;SDS011;70834;37.534;-122.308;2024-03-08T03:03:18;17.15;;;3.60;;
81382;SDS011;70834;37.534;-122.308;2024-03-08T03:05:40;16.27;;;3.03;;
81382;SDS011;70834;37.534;-122.308;2024-03-08T03:08:05;11.98;;;3.13;;
81382;SDS011;70834;37.534;-122.308;2024-03-08T03:10:29;15.52;;;2.75;;
81382;SDS011;70834;37.534;-122.308;2024-03-08T03:12:51;16.63;;;2.97;;
81382;SDS011;70834;37.534;-122.308;2024-03-08T03:15:14;14.75;;;3.05;;
81382;SDS011;70834;37.534;-122.308;2024-03-08T03:17:39;12.60;;;3.22;;
81382;SDS011;70834;37.534;-122.308;2024-03-08T03:20:01;17.15;;;3.22;;
81382;SDS011;70834;37.534;-122.308;2024-03-08T03:22:30;17.17;;;3.38;;
81382;SDS011;70834;37.534;-122.308;2024-03-08T03:24:52;20.42;;;3.80;;
81382;SDS011;70834;37.534;-122.308;2024-03-08T03:27:16;19.02;;;3.28;;
81382;SDS011;70834;37.534;-122.308;2024-03-08T03:29:41;13.15;;;3.05;;
81382;SDS011;70834;37.534;-122.308;2024-03-08T03:32:08;16.02;;;2.55;;
81382;SDS011;70834;37.534;-122.308;2024-03-08T03:34:29;17.23;;;3.40;;
81382;SDS011;70834;37.534;-122.308;2024-03-08T03:36:51;14.20;;;3.20;;
81382;SDS011;70834;37.534;-122.308;2024-03-08T03:39:16;16.83;;;3.35;;
81382;SDS011;70834;37.534;-122.308;2024-03-08T03:41:40;17.67;;;3.30;;
81382;SDS011;70834;37.534;-122.308;2024-03-08T03:44:06;18.33;;;3.47;;
81382;SDS011;70834;37.534;-122.308;2024-03-08T03:46:30;20.83;;;3.95;;
81382;SDS011;70834;37.534;-122.308;2024-03-08T03:48:53;16.85;;;3.13;;
81382;SDS011;70834;37.534;-122.308;2024-03-08T03:51:16;15.52;;;3.25;;
81382;SDS011;70834;37.534;-122.308;2024-03-08T03:53:38;17.60;;;3.00;;
81382;SDS011;70834;37.534;-122.308;2024-03-08T03:56:00;25.20;;;3.45;;
81382;SDS011;70834;37.534;-122.308;2024-03-08T03:58:22;15.30;;;3.83;;
81382;SDS011;70834;37.534;-122.308;2024-03-08T04:00:44;18.23;;;3.15;;
81382;SDS011;70834;37.534;-122.308;2024-03-08T04:03:06;21.25;;;4.20;;
81382;SDS011;70834;37.534;-122.308;2024-03-08T04:05:28;24.60;;;3.67;;
81382;SDS011;70834;37.534;-122.308;2024-03-08T04:07:51;21.10;;;3.22;;
81382;SDS011;70834;37.534;-122.308;2024-03-08T04:10:13;19.55;;;4.47;;
81382;SDS011;70834;37.534;-122.308;2024-03-08T04:12:35;31.52;;;4.28;;
81382;SDS011;70834;37.534;-122.308;2024-03-08T04:14:57;21.08;;;5.80;;
81382;SDS011;70834;37.534;-122.308;2024-03-08T04:17:19;23.83;;;4.13;;
81382;SDS011;70834;37.534;-122.308;2024-03-08T04:19:42;17.38;;;3.08;;
81382;SDS011;70834;37.534;-122.308;2024-03-08T04:22:05;21.88;;;3.38;;
81382;SDS011;70834;37.534;-122.308;2024-03-08T04:24:27;18.80;;;3.42;;
81382;SDS011;70834;37.534;-122.308;2024-03-08T04:26:51;21.23;;;4.63;;
81382;SDS011;70834;37.534;-122.308;2024-03-08T04:29:13;18.05;;;3.55;;
81382;SDS011;70834;37.534;-122.308;2024-03-08T04:31:34;18.40;;;3.75;;
81382;SDS011;70834;37.534;-122.308;2024-03-08T04:33:58;28.40;;;3.97;;
81382;SDS011;70834;37.534;-122.308;2024-03-08T04:36:20;20.92;;;3.05;;
81382;SDS011;70834;37.534;-122.308;2024-03-08T04:38:42;23.13;;;4.10;;
81382;SDS011;70834;37.534;-122.308;2024-03-08T04:41:03;18.00;;;3.58;;
81382;SDS011;70834;37.534;-122.308;2024-03-08T04:43:25;16.48;;;2.70;;
81382;SDS011;70834;37.534;-122.308;2024-03-08T04:45:46;14.75;;;2.97;;
81382;SDS011;70834;37.534;-122.308;2024-03-08T04:48:08;18.45;;;3.10;;
81382;SDS011;70834;37.534;-122.308;2024-03-08T04:50:30;22.17;;;4.20;;
81382;SDS011;70834;37.534;-122.308;2024-03-08T04:52:51;21.38;;;3.85;;
81382;SDS011;70834;37.534;-122.308;2024-03-08T04:55:13;21.40;;;3.53;;
81382;SDS011;70834;37.534;-122.308;2024-03-08T04:57:34;21.95;;;3.75;;
81382;SDS011;70834;37.534;-122.308;2024-03-08T04:59:56;22.73;;;4.38;;
81382;SDS011;70834;37.534;-122.308;2024-03-08T05:02:19;14.98;;;3.40;;
81382;SDS011;70834;37.534;-122.308;2024-03-08T05:04:43;17.20;;;3.05;;
81382;SDS011;70834;37.534;-122.308;2024-03-08T05:07:04;22.45;;;3.78;;
81382;SDS011;70834;37.534;-122.308;2024-03-08T05:09:26;23.67;;;3.25;;
81382;SDS011;70834;37.534;-122.308;2024-03-08T05:11:49;15.57;;;3.25;;
81382;SDS011;70834;37.534;-122.308;2024-03-08T05:14:11;22.08;;;3.00;;
81382;SDS011;70834;37.534;-122.308;2024-03-08T05:16:36;15.90;;;2.80;;
81382;SDS011;70834;37.534;-122.308;2024-03-08T05:18:58;14.38;;;2.97;;
81382;SDS011;70834;37.534;-122.308;2024-03-08T05:21:19;18.08;;;3.03;;
81382;SDS011;70834;37.534;-122.308;2024-03-08T05:23:41;14.95;;;3.00;;
81382;SDS011;70834;37.534;-122.308;2024-03-08T05:26:02;17.38;;;2.97;;
81382;SDS011;70834;37.534;-122.308;2024-03-08T05:28:24;12.13;;;2.40;;
81382;SDS011;70834;37.534;-122.308;2024-03-08T05:30:45;14.63;;;3.00;;
81382;SDS011;70834;37.534;-122.308;2024-03-08T05:33:07;13.63;;;2.95;;
81382;SDS011;70834;37.534;-122.308;2024-03-08T05:35:31;22.90;;;4.10;;
81382;SDS011;70834;37.534;-122.308;2024-03-08T05:37:53;22.23;;;3.65;;
81382;SDS011;70834;37.534;-122.308;2024-03-08T05:40:14;19.15;;;2.85;;
81382;SDS011;70834;37.534;-122.308;2024-03-08T05:42:36;22.73;;;4.15;;
81382;SDS011;70834;37.534;-122.308;2024-03-08T05:44:57;12.43;;;2.42;;
81382;SDS011;70834;37.534;-122.308;2024-03-08T05:47:19;31.33;;;4.30;;
81382;SDS011;70834;37.534;-122.308;2024-03-08T05:49:40;21.23;;;2.80;;
81382;SDS011;70834;37.534;-122.308;2024-03-08T05:52:04;20.73;;;3.20;;
81382;SDS011;70834;37.534;-122.308;2024-03-08T05:54:26;19.05;;;4.10;;
81382;SDS011;70834;37.534;-122.308;2024-03-08T05:56:47;24.90;;;3.50;;
81382;SDS011;70834;37.534;-122.308;2024-03-08T05:59:09;22.25;;;4.30;;
81382;SDS011;70834;37.534;-122.308;2024-03-08T06:01:31;17.83;;;3.03;;
81382;SDS011;70834;37.534;-122.308;2024-03-08T06:03:56;14.48;;;2.75;;
81382;SDS011;70834;37.534;-122.308;2024-03-08T06:06:18;23.33;;;3.58;;
81382;SDS011;70834;37.534;-122.308;2024-03-08T06:08:40;16.15;;;2.90;;
81382;SDS011;70834;37.534;-122.308;2024-03-08T06:11:03;21.10;;;3.40;;
81382;SDS011;70834;37.534;-122.308;2024-03-08T06:13:26;20.10;;;3.30;;
81382;SDS011;70834;37.534;-122.308;2024-03-08T06:15:47;27.00;;;3.88;;
81382;SDS011;70834;37.534;-122.308;2024-03-08T06:18:10;15.45;;;2.83;;
81382;SDS011;70834;37.534;-122.308;2024-03-08T06:20:32;18.70;;;3.28;;
81382;SDS011;70834;37.534;-122.308;2024-03-08T06:22:54;23.92;;;3.72;;
81382;SDS011;70834;37.534;-122.308;2024-03-08T06:25:15;20.70;;;3.40;;
81382;SDS011;70834;37.534;-122.308;2024-03-08T06:27:37;24.15;;;2.83;;
81382;SDS011;70834;37.534;-122.308;2024-03-08T06:29:58;27.00;;;3.50;;
81382;SDS011;70834;37.534;-122.308;2024-03-08T06:32:20;23.25;;;2.95;;
81382;SDS011;70834;37.534;-122.308;2024-03-08T06:34:43;16.60;;;2.58;;
81382;SDS011;70834;37.534;-122.308;2024-03-08T06:37:04;22.85;;;4.43;;
81382;SDS011;70834;37.534;-122.308;2024-03-08T06:39:26;14.68;;;2.35;;
81382;SDS011;70834;37.534;-122.308;2024-03-08T06:41:51;18.30;;;2.43;;
81382;SDS011;70834;37.534;-122.308;2024-03-08T06:44:13;14.70;;;3.00;;
81382;SDS011;70834;37.534;-122.308;2024-03-08T06:46:34;14.20;;;2.63;;
81382;SDS011;70834;37.534;-122.308;2024-03-08T06:48:56;22.42;;;3.20;;
81382;SDS011;70834;37.534;-122.308;2024-03-08T06:51:18;14.90;;;2.75;;
81382;SDS011;70834;37.534;-122.308;2024-03-08T06:53:39;11.45;;;2.15;;
81382;SDS011;70834;37.534;-122.308;2024-03-08T06:56:01;13.32;;;3.38;;
81382;SDS011;70834;37.534;-122.308;2024-03-08T06:58:23;22.33;;;4.13;;
81382;SDS011;70834;37.534;-122.308;2024-03-08T07:00:44;15.00;;;2.50;;
81382;SDS011;70834;37.534;-122.308;2024-03-08T07:03:07;14.27;;;2.30;;
81382;SDS011;70834;37.534;-122.308;2024-03-08T07:05:32;15.88;;;3.28;;
81382;SDS011;70834;37.534;-122.308;2024-03-08T07:07:54;15.10;;;2.35;;
81382;SDS011;70834;37.534;-122.308;2024-03-08T07:10:15;16.60;;;3.10;;
81382;SDS011;70834;37.534;-122.308;2024-03-08T07:12:37;11.32;;;2.00;;
81382;SDS011;70834;37.534;-122.308;2024-03-08T07:14:59;18.98;;;3.80;;
81382;SDS011;70834;37.534;-122.308;2024-03-08T07:17:20;15.27;;;2.38;;
81382;SDS011;70834;37.534;-122.308;2024-03-08T07:19:42;15.95;;;2.30;;
81382;SDS011;70834;37.534;-122.308;2024-03-08T07:22:04;12.43;;;2.10;;
81382;SDS011;70834;37.534;-122.308;2024-03-08T07:24:28;10.65;;;2.25;;
81382;SDS011;70834;37.534;-122.308;2024-03-08T07:27:08;15.27;;;2.28;;
81382;SDS011;70834;37.534;-122.308;2024-03-08T07:29:29;15.45;;;2.15;;
81382;SDS011;70834;37.534;-122.308;2024-03-08T07:31:56;10.52;;;1.85;;
81382;SDS011;70834;37.534;-122.308;2024-03-08T07:34:21;14.38;;;2.53;;
81382;SDS011;70834;37.534;-122.308;2024-03-08T07:36:42;10.85;;;1.83;;
81382;SDS011;70834;37.534;-122.308;2024-03-08T07:39:04;14.57;;;2.42;;
81382;SDS011;70834;37.534;-122.308;2024-03-08T07:41:31;11.88;;;1.95;;
81382;SDS011;70834;37.534;-122.308;2024-03-08T07:43:56;14.18;;;2.10;;
81382;SDS011;70834;37.534;-122.308;2024-03-08T07:46:18;13.55;;;2.58;;
81382;SDS011;70834;37.534;-122.308;2024-03-08T07:48:39;14.10;;;2.25;;
81382;SDS011;70834;37.534;-122.308;2024-03-08T07:51:01;14.18;;;3.08;;
81382;SDS011;70834;37.534;-122.308;2024-03-08T07:53:23;13.32;;;2.75;;
81382;SDS011;70834;37.534;-122.308;2024-03-08T07:55:44;13.23;;;2.15;;
81382;SDS011;70834;37.534;-122.308;2024-03-08T07:58:06;15.45;;;3.17;;
81382;SDS011;70834;37.534;-122.308;2024-03-08T08:00:29;12.20;;;1.90;;
81382;SDS011;70834;37.534;-122.308;2024-03-08T08:02:54;8.40;;;1.95;;
81382;SDS011;70834;37.534;-122.308;2024-03-08T08:05:15;9.05;;;2.03;;
81382;SDS011;70834;37.534;-122.308;2024-03-08T08:07:38;14.80;;;2.95;;
81382;SDS011;70834;37.534;-122.308;2024-03-08T08:10:03;9.57;;;2.10;;
81382;SDS011;70834;37.534;-122.308;2024-03-08T08:12:26;6.00;;;1.80;;
81382;SDS011;70834;37.534;-122.308;2024-03-08T08:14:49;10.15;;;2.03;;
81382;SDS011;70834;37.534;-122.308;2024-03-08T08:17:10;13.30;;;3.20;;
81382;SDS011;70834;37.534;-122.308;2024-03-08T08:19:32;14.98;;;2.45;;
81382;SDS011;70834;37.534;-122.308;2024-03-08T08:21:53;13.77;;;2.38;;
81382;SDS011;70834;37.534;-122.308;2024-03-08T08:24:16;12.63;;;2.00;;
81382;SDS011;70834;37.534;-122.308;2024-03-08T08:26:37;10.95;;;2.05;;
81382;SDS011;70834;37.534;-122.308;2024-03-08T08:28:59;11.30;;;2.03;;
81382;SDS011;70834;37.534;-122.308;2024-03-08T08:31:20;13.25;;;2.38;;
81382;SDS011;70834;37.534;-122.308;2024-03-08T08:33:42;7.18;;;1.80;;
81382;SDS011;70834;37.534;-122.308;2024-03-08T08:36:04;9.43;;;1.98;;
81382;SDS011;70834;37.534;-122.308;2024-03-08T08:38:26;9.88;;;1.88;;
81382;SDS011;70834;37.534;-122.308;2024-03-08T08:40:48;14.15;;;2.50;;
81382;SDS011;70834;37.534;-122.308;2024-03-08T08:43:10;7.63;;;2.22;;
81382;SDS011;70834;37.534;-122.308;2024-03-08T08:45:31;7.10;;;2.30;;
81382;SDS011;70834;37.534;-122.308;2024-03-08T08:47:53;18.38;;;2.08;;
81382;SDS011;70834;37.534;-122.308;2024-03-08T08:50:15;11.20;;;1.73;;
81382;SDS011;70834;37.534;-122.308;2024-03-08T08:52:43;11.02;;;1.80;;
81382;SDS011;70834;37.534;-122.308;2024-03-08T08:55:04;13.35;;;2.42;;
81382;SDS011;70834;37.534;-122.308;2024-03-08T08:57:26;17.20;;;2.20;;
81382;SDS011;70834;37.534;-122.308;2024-03-08T08:59:48;11.95;;;2.10;;
81382;SDS011;70834;37.534;-122.308;2024-03-08T09:02:10;12.63;;;1.88;;
81382;SDS011;70834;37.534;-122.308;2024-03-08T09:04:32;13.25;;;2.30;;
81382;SDS011;70834;37.534;-122.308;2024-03-08T09:06:53;6.60;;;1.60;;
81382;SDS011;70834;37.534;-122.308;2024-03-08T09:09:15;14.40;;;1.73;;
81382;SDS011;70834;37.534;-122.308;2024-03-08T09:11:37;11.50;;;2.72;;
81382;SDS011;70834;37.534;-122.308;2024-03-08T09:14:01;11.85;;;2.10;;
81382;SDS011;70834;37.534;-122.308;2024-03-08T09:16:23;8.18;;;2.05;;
81382;SDS011;70834;37.534;-122.308;2024-03-08T09:18:45;9.95;;;2.42;;
81382;SDS011;70834;37.534;-122.308;2024-03-08T09:21:07;10.27;;;2.40;;
81382;SDS011;70834;37.534;-122.308;2024-03-08T09:23:33;10.52;;;1.80;;
81382;SDS011;70834;37.534;-122.308;2024-03-08T09:25:56;10.52;;;1.65;;
81382;SDS011;70834;37.534;-122.308;2024-03-08T09:28:17;6.55;;;2.25;;
81382;SDS011;70834;37.534;-122.308;2024-03-08T09:30:40;7.05;;;1.75;;
81382;SDS011;70834;37.534;-122.308;2024-03-08T09:33:01;12.30;;;2.00;;
81382;SDS011;70834;37.534;-122.308;2024-03-08T09:35:23;10.32;;;1.88;;
81382;SDS011;70834;37.534;-122.308;2024-03-08T09:37:45;8.95;;;1.80;;
81382;SDS011;70834;37.534;-122.308;2024-03-08T09:40:11;8.38;;;1.63;;
81382;SDS011;70834;37.534;-122.308;2024-03-08T09:42:35;16.65;;;2.00;;
81382;SDS011;70834;37.534;-122.308;2024-03-08T09:44:59;4.57;;;1.83;;
81382;SDS011;70834;37.534;-122.308;2024-03-08T09:47:21;7.18;;;2.00;;
81382;SDS011;70834;37.534;-122.308;2024-03-08T09:49:47;14.70;;;2.17;;
81382;SDS011;70834;37.534;-122.308;2024-03-08T09:52:09;16.27;;;3.08;;
81382;SDS011;70834;37.534;-122.308;2024-03-08T09:54:32;16.70;;;4.13;;
81382;SDS011;70834;37.534;-122.308;2024-03-08T09:56:54;13.63;;;2.15;;
81382;SDS011;70834;37.534;-122.308;2024-03-08T09:59:16;8.95;;;1.75;;
81382;SDS011;70834;37.534;-122.308;2024-03-08T10:01:43;8.95;;;2.05;;
81382;SDS011;70834;37.534;-122.308;2024-03-08T10:04:04;13.23;;;2.22;;
81382;SDS011;70834;37.534;-122.308;2024-03-08T10:06:27;12.88;;;1.85;;
81382;SDS011;70834;37.534;-122.308;2024-03-08T10:08:48;18.67;;;2.85;;
81382;SDS011;70834;37.534;-122.308;2024-03-08T10:11:12;9.23;;;1.80;;
81382;SDS011;70834;37.534;-122.308;2024-03-08T10:13:33;8.10;;;1.80;;
81382;SDS011;70834;37.534;-122.308;2024-03-08T10:15:55;14.98;;;2.72;;
81382;SDS011;70834;37.534;-122.308;2024-03-08T10:18:17;6.95;;;1.90;;
81382;SDS011;70834;37.534;-122.308;2024-03-08T10:20:39;6.70;;;1.95;;
81382;SDS011;70834;37.534;-122.308;2024-03-08T10:23:01;13.52;;;1.80;;
81382;SDS011;70834;37.534;-122.308;2024-03-08T10:25:25;14.35;;;2.00;;
81382;SDS011;70834;37.534;-122.308;2024-03-08T10:27:47;10.65;;;1.80;;
81382;SDS011;70834;37.534;-122.308;2024-03-08T10:30:10;12.82;;;2.22;;
81382;SDS011;70834;37.534;-122.308;2024-03-08T10:32:40;11.35;;;2.35;;
81382;SDS011;70834;37.534;-122.308;2024-03-08T10:35:01;11.48;;;1.92;;
81382;SDS011;70834;37.534;-122.308;2024-03-08T10:37:23;9.65;;;1.92;;
81382;SDS011;70834;37.534;-122.308;2024-03-08T10:39:46;8.32;;;1.73;;
81382;SDS011;70834;37.534;-122.308;2024-03-08T10:42:30;8.27;;;2.00;;
81382;SDS011;70834;37.534;-122.308;2024-03-08T10:45:15;7.88;;;2.03;;
81382;SDS011;70834;37.534;-122.308;2024-03-08T10:47:58;11.38;;;2.13;;
81382;SDS011;70834;37.534;-122.308;2024-03-08T10:50:24;11.13;;;1.98;;
81382;SDS011;70834;37.534;-122.308;2024-03-08T10:52:47;9.15;;;1.88;;
81382;SDS011;70834;37.534;-122.308;2024-03-08T10:55:11;11.30;;;2.38;;
81382;SDS011;70834;37.534;-122.308;2024-03-08T10:57:34;10.27;;;2.30;;
81382;SDS011;70834;37.534;-122.308;2024-03-08T10:59:58;7.60;;;1.60;;
81382;SDS011;70834;37.534;-122.308;2024-03-08T11:02:20;9.15;;;1.63;;
81382;SDS011;70834;37.534;-122.308;2024-03-08T11:04:48;11.25;;;1.95;;
81382;SDS011;70834;37.534;-122.308;2024-03-08T11:07:10;8.98;;;1.73;;
81382;SDS011;70834;37.534;-122.308;2024-03-08T11:09:37;9.90;;;1.80;;
81382;SDS011;70834;37.534;-122.308;2024-03-08T11:14:44;12.70;;;1.60;;
81382;SDS011;70834;37.534;-122.308;2024-03-08T11:17:09;13.32;;;2.15;;
81382;SDS011;70834;37.534;-122.308;2024-03-08T11:19:30;12.20;;;1.85;;
81382;SDS011;70834;37.534;-122.308;2024-03-08T11:21:59;7.68;;;1.73;;
81382;SDS011;70834;37.534;-122.308;2024-03-08T11:24:21;11.18;;;1.70;;
81382;SDS011;70834;37.534;-122.308;2024-03-08T11:26:44;12.13;;;2.00;;
81382;SDS011;70834;37.534;-122.308;2024-03-08T11:32:07;10.25;;;1.77;;
81382;SDS011;70834;37.534;-122.308;2024-03-08T11:34:29;8.25;;;2.03;;
81382;SDS011;70834;37.534;-122.308;2024-03-08T11:36:53;11.70;;;2.33;;
81382;SDS011;70834;37.534;-122.308;2024-03-08T11:39:16;15.02;;;2.17;;
81382;SDS011;70834;37.534;-122.308;2024-03-08T11:41:39;12.65;;;1.92;;
81382;SDS011;70834;37.534;-122.308;2024-03-08T11:44:05;8.93;;;1.80;;
81382;SDS011;70834;37.534;-122.308;2024-03-08T11:46:27;9.70;;;2.20;;
81382;SDS011;70834;37.534;-122.308;2024-03-08T11:48:48;10.57;;;2.30;;
81382;SDS011;70834;37.534;-122.308;2024-03-08T11:51:13;8.35;;;1.98;;
81382;SDS011;70834;37.534;-122.308;2024-03-08T11:53:35;8.63;;;1.90;;
81382;SDS011;70834;37.534;-122.308;2024-03-08T11:56:10;15.90;;;2.97;;
81382;SDS011;70834;37.534;-122.308;2024-03-08T11:58:32;12.15;;;2.13;;
81382;SDS011;70834;37.534;-122.308;2024-03-08T12:01:02;11.18;;;2.28;;
81382;SDS011;70834;37.534;-122.308;2024-03-08T12:03:25;15.75;;;2.72;;
81382;SDS011;70834;37.534;-122.308;2024-03-08T12:05:46;10.88;;;1.92;;
81382;SDS011;70834;37.534;-122.308;2024-03-08T12:08:20;15.80;;;2.20;;
81382;SDS011;70834;37.534;-122.308;2024-03-08T12:10:41;8.65;;;1.95;;
81382;SDS011;70834;37.534;-122.308;2024-03-08T12:13:03;7.63;;;2.28;;
81382;SDS011;70834;37.534;-122.308;2024-03-08T12:15:31;11.70;;;2.03;;
81382;SDS011;70834;37.534;-122.308;2024-03-08T12:17:54;6.70;;;1.88;;
81382;SDS011;70834;37.534;-122.308;2024-03-08T12:20:20;11.32;;;1.85;;
81382;SDS011;70834;37.534;-122.308;2024-03-08T12:22:46;7.03;;;2.10;;
81382;SDS011;70834;37.534;-122.308;2024-03-08T12:25:09;10.80;;;2.55;;
81382;SDS011;70834;37.534;-122.308;2024-03-08T12:27:32;9.25;;;2.72;;
81382;SDS011;70834;37.534;-122.308;2024-03-08T12:29:54;9.10;;;2.50;;
81382;SDS011;70834;37.534;-122.308;2024-03-08T12:32:15;10.95;;;2.38;;
81382;SDS011;70834;37.534;-122.308;2024-03-08T12:34:37;14.18;;;2.33;;
81382;SDS011;70834;37.534;-122.308;2024-03-08T12:36:58;8.68;;;2.65;;
81382;SDS011;70834;37.534;-122.308;2024-03-08T12:39:20;7.28;;;1.88;;
81382;SDS011;70834;37.534;-122.308;2024-03-08T12:41:43;10.23;;;1.80;;
81382;SDS011;70834;37.534;-122.308;2024-03-08T12:44:05;7.50;;;2.28;;
81382;SDS011;70834;37.534;-122.308;2024-03-08T12:46:27;18.02;;;2.78;;
81382;SDS011;70834;37.534;-122.308;2024-03-08T12:48:50;11.43;;;2.40;;
81382;SDS011;70834;37.534;-122.308;2024-03-08T12:51:14;9.00;;;1.95;;
81382;SDS011;70834;37.534;-122.308;2024-03-08T12:53:36;13.18;;;2.60;;
81382;SDS011;70834;37.534;-122.308;2024-03-08T12:56:00;8.27;;;2.05;;
81382;SDS011;70834;37.534;-122.308;2024-03-08T12:58:25;11.88;;;1.98;;
81382;SDS011;70834;37.534;-122.308;2024-03-08T13:00:46;10.65;;;2.15;;
81382;SDS011;70834;37.534;-122.308;2024-03-08T13:03:28;14.27;;;2.10;;
81382;SDS011;70834;37.534;-122.308;2024-03-08T13:05:50;11.55;;;2.00;;
81382;SDS011;70834;37.534;-122.308;2024-03-08T13:08:11;9.98;;;1.92;;
81382;SDS011;70834;37.534;-122.308;2024-03-08T13:10:33;8.82;;;1.88;;
81382;SDS011;70834;37.534;-122.308;2024-03-08T13:12:54;8.05;;;2.30;;
81382;SDS011;70834;37.534;-122.308;2024-03-08T13:15:16;5.85;;;1.83;;
81382;SDS011;70834;37.534;-122.308;2024-03-08T13:17:41;12.65;;;2.47;;
81382;SDS011;70834;37.534;-122.308;2024-03-08T13:20:04;10.07;;;1.90;;
81382;SDS011;70834;37.534;-122.308;2024-03-08T13:22:28;10.88;;;2.42;;
81382;SDS011;70834;37.534;-122.308;2024-03-08T13:24:49;8.60;;;2.47;;
81382;SDS011;70834;37.534;-122.308;2024-03-08T13:27:12;11.07;;;2.30;;
81382;SDS011;70834;37.534;-122.308;2024-03-08T13:29:39;8.93;;;1.95;;
81382;SDS011;70834;37.534;-122.308;2024-03-08T13:32:01;6.43;;;2.10;;
81382;SDS011;70834;37.534;-122.308;2024-03-08T13:34:23;9.80;;;2.30;;
81382;SDS011;70834;37.534;-122.308;2024-03-08T13:36:48;6.53;;;1.85;;
81382;SDS011;70834;37.534;-122.308;2024-03-08T13:39:11;10.32;;;2.10;;
81382;SDS011;70834;37.534;-122.308;2024-03-08T13:41:35;11.13;;;2.17;;